createdAt,value
2023-05-04T00:00:20.046Z,102155.54
2023-05-04T00:02:47.243Z,102156.58
2023-05-04T00:05:14.550Z,102149.64
2023-05-04T00:07:41.844Z,102154.34
2023-05-04T00:10:09.529Z,102152.95
2023-05-04T00:12:36.459Z,102149.67
2023-05-04T00:15:04.220Z,102145.85
2023-05-04T00:17:31.609Z,102146.88
2023-05-04T00:19:58.548Z,102148.45
2023-05-04T00:22:25.901Z,102147.23
2023-05-04T00:24:52.814Z,102150.02
2023-05-04T00:27:19.772Z,102147.08
2023-05-04T00:29:47.030Z,102147.92
2023-05-04T00:32:14.002Z,102144.27
2023-05-04T00:34:41.875Z,102139.73
2023-05-04T00:37:08.898Z,102136.63
2023-05-04T00:39:35.745Z,102131.97
2023-05-04T00:42:03.331Z,102134.05
2023-05-04T00:44:30.306Z,102131.96
2023-05-04T00:46:57.644Z,102125.22
2023-05-04T00:49:24.706Z,102122.10
2023-05-04T00:51:52.146Z,102119.85
2023-05-04T00:54:19.068Z,102119.34
2023-05-04T00:56:46.188Z,102117.98
2023-05-04T00:59:14.119Z,102112.61
2023-05-04T01:01:41.605Z,102112.44
2023-05-04T01:04:09.422Z,102115.20
2023-05-04T01:06:49.332Z,102110.87
2023-05-04T01:09:34.270Z,102109.80
2023-05-04T01:12:01.286Z,102104.94
2023-05-04T01:14:28.388Z,102103.05
2023-05-04T01:16:57.446Z,102102.69
2023-05-04T01:19:24.654Z,102109.09
2023-05-04T01:21:51.699Z,102109.10
2023-05-04T01:24:18.702Z,102106.18
2023-05-04T01:26:46.563Z,102111.00
2023-05-04T01:29:17.284Z,102112.04
2023-05-04T01:31:45.532Z,102107.88
2023-05-04T01:34:13.118Z,102102.17
2023-05-04T01:36:40.595Z,102099.92
2023-05-04T01:39:09.874Z,102104.45
2023-05-04T01:41:36.916Z,102099.09
2023-05-04T01:44:04.332Z,102093.54
2023-05-04T01:46:31.666Z,102096.14
2023-05-04T01:49:00.120Z,102099.61
2023-05-04T01:51:27.173Z,102100.30
2023-05-04T01:53:54.219Z,102101.88
2023-05-04T01:56:21.879Z,102104.82
2023-05-04T01:58:48.857Z,102109.36
2023-05-04T02:01:15.986Z,102103.80
2023-05-04T02:03:43.492Z,102099.83
2023-05-04T02:06:10.614Z,102094.45
2023-05-04T02:08:38.134Z,102092.19
2023-05-04T02:11:05.151Z,102097.91
2023-05-04T02:13:32.202Z,102091.50
2023-05-04T02:15:59.101Z,102089.76
2023-05-04T02:18:26.219Z,102089.25
2023-05-04T02:20:53.099Z,102084.21
2023-05-04T02:23:20.016Z,102076.06
2023-05-04T02:25:46.974Z,102073.47
2023-05-04T02:28:14.050Z,102074.17
2023-05-04T02:30:42.028Z,102071.39
2023-05-04T02:33:09.422Z,102069.13
2023-05-04T02:35:36.834Z,102065.84
2023-05-04T02:38:05.175Z,102066.70
2023-05-04T02:40:32.515Z,102062.90
2023-05-04T02:42:59.622Z,102063.95
2023-05-04T02:45:27.044Z,102060.30
2023-05-04T02:47:54.243Z,102059.09
2023-05-04T02:50:21.666Z,102062.39
2023-05-04T02:52:48.654Z,102058.23
2023-05-04T02:55:15.891Z,102055.27
2023-05-04T02:57:42.930Z,102052.52
2023-05-04T03:00:10.446Z,102058.59
2023-05-04T03:02:37.458Z,102060.15
2023-05-04T03:05:04.746Z,102061.20
2023-05-04T03:07:31.961Z,102065.34
2023-05-04T03:09:59.013Z,102065.16
2023-05-04T03:12:26.906Z,102061.84
2023-05-04T03:14:54.036Z,102059.89
2023-05-04T03:17:21.029Z,102057.99
2023-05-04T03:19:48.351Z,102061.63
2023-05-04T03:22:15.378Z,102067.16
2023-05-04T03:24:43.609Z,102070.80
2023-05-04T03:27:10.675Z,102074.10
2023-05-04T03:29:37.942Z,102080.34
2023-05-04T03:32:05.679Z,102082.77
2023-05-04T03:34:32.802Z,102087.50
2023-05-04T03:37:02.214Z,102090.97
2023-05-04T03:39:29.178Z,102093.22
2023-05-04T03:41:56.188Z,102092.70
2023-05-04T03:44:23.170Z,102093.91
2023-05-04T03:46:50.146Z,102087.86
2023-05-04T03:49:17.206Z,102086.11
2023-05-04T03:51:44.129Z,102089.06
2023-05-04T03:54:11.166Z,102092.18
2023-05-04T03:56:38.134Z,102095.10
2023-05-04T03:59:05.056Z,102095.79
2023-05-04T04:01:32.043Z,102095.95
2023-05-04T04:03:59.055Z,102094.74
2023-05-04T04:06:26.099Z,102095.09
2023-05-04T04:08:53.179Z,102094.26
2023-05-04T04:11:20.131Z,102091.68
2023-05-04T04:13:47.078Z,102091.52
2023-05-04T04:16:14.176Z,102093.93
2023-05-04T04:18:41.402Z,102094.10
2023-05-04T04:21:10.031Z,102093.40
2023-05-04T04:23:37.077Z,102092.02
2023-05-04T04:26:06.242Z,102096.70
2023-05-04T04:28:33.787Z,102092.02
2023-05-04T04:31:00.907Z,102094.08
2023-05-04T04:33:27.999Z,102090.77
2023-05-04T04:35:55.017Z,102092.48
2023-05-04T04:38:21.965Z,102091.73
2023-05-04T04:40:48.898Z,102088.94
2023-05-04T04:43:15.755Z,102093.78
2023-05-04T04:45:43.038Z,102094.75
2023-05-04T04:48:11.499Z,102093.85
2023-05-04T04:50:39.838Z,102094.67
2023-05-04T04:53:06.870Z,102092.52
2023-05-04T04:55:34.759Z,102093.80
2023-05-04T04:58:02.019Z,102096.63
2023-05-04T05:00:29.037Z,102104.16
2023-05-04T05:02:56.601Z,102104.75
2023-05-04T05:05:23.558Z,102110.73
2023-05-04T05:07:50.683Z,102112.71
2023-05-04T05:10:17.876Z,102113.86
2023-05-04T05:12:44.860Z,102116.04
2023-05-04T05:15:12.071Z,102115.22
2023-05-04T05:17:39.444Z,102117.08
2023-05-04T05:20:10.821Z,102116.38
2023-05-04T05:22:38.527Z,102114.14
2023-05-04T05:25:06.723Z,102104.58
2023-05-04T05:27:34.668Z,102107.05
2023-05-04T05:30:06.290Z,102100.52
2023-05-04T05:32:33.802Z,102095.61
2023-05-04T05:35:01.196Z,102092.92
2023-05-04T05:37:28.169Z,102089.42
2023-05-04T05:39:55.173Z,102092.39
2023-05-04T05:42:22.269Z,102091.46
2023-05-04T05:44:49.694Z,102094.38
2023-05-04T05:47:17.080Z,102093.66
2023-05-04T05:49:46.247Z,102090.63
2023-05-04T05:52:13.726Z,102086.68
2023-05-04T05:54:40.609Z,102081.06
2023-05-04T05:57:07.697Z,102077.88
2023-05-04T05:59:35.706Z,102080.13
2023-05-04T06:02:02.878Z,102080.72
2023-05-04T06:04:29.889Z,102080.91
2023-05-04T06:06:56.970Z,102086.05
2023-05-04T06:09:27.314Z,102082.11
2023-05-04T06:11:55.581Z,102084.44
2023-05-04T06:14:22.797Z,102086.50
2023-05-04T06:16:49.989Z,102086.73
2023-05-04T06:19:17.654Z,102088.65
2023-05-04T06:21:45.156Z,102085.63
2023-05-04T06:24:12.393Z,102081.91
2023-05-04T06:26:39.566Z,102080.36
2023-05-04T06:29:06.651Z,102081.33
2023-05-04T06:31:36.273Z,102081.00
2023-05-04T06:34:04.701Z,102080.98
2023-05-04T06:36:32.874Z,102079.98
2023-05-04T06:39:03.591Z,102077.52
2023-05-04T06:41:30.995Z,102071.73
2023-05-04T06:44:00.054Z,102071.95
2023-05-04T06:46:29.025Z,102070.89
2023-05-04T06:48:59.632Z,102071.16
2023-05-04T06:51:28.282Z,102067.86
2023-05-04T06:53:55.641Z,102060.02
2023-05-04T06:56:23.702Z,102056.16
2023-05-04T06:58:50.829Z,102052.29
2023-05-04T07:01:29.611Z,102052.48
2023-05-04T07:04:09.891Z,102052.45
2023-05-04T07:06:39.655Z,102052.67
2023-05-04T07:09:08.517Z,102054.77
2023-05-04T07:11:37.943Z,102056.92
2023-05-04T07:14:05.132Z,102060.50
2023-05-04T07:16:35.981Z,102065.30
2023-05-04T07:19:04.682Z,102064.67
2023-05-04T07:21:33.675Z,102065.30
2023-05-04T07:24:01.398Z,102063.64
2023-05-04T07:26:28.830Z,102062.89
2023-05-04T07:28:55.859Z,102061.47
2023-05-04T07:31:23.369Z,102061.98
2023-05-04T07:33:51.359Z,102065.80
2023-05-04T07:36:18.434Z,102063.39
2023-05-04T07:38:46.498Z,102060.95
2023-05-04T07:41:13.476Z,102059.32
2023-05-04T07:43:40.570Z,102058.00
2023-05-04T07:46:07.821Z,102055.64
2023-05-04T07:48:35.453Z,102057.85
2023-05-04T07:51:08.276Z,102064.48
2023-05-04T07:53:36.575Z,102070.99
2023-05-04T07:56:13.831Z,102067.35
2023-05-04T07:58:41.591Z,102074.52
2023-05-04T08:01:09.548Z,102077.67
2023-05-04T08:03:36.914Z,102080.34
2023-05-04T08:06:03.842Z,102081.50
2023-05-04T08:08:32.100Z,102081.27
2023-05-04T08:11:11.592Z,102080.79
2023-05-04T08:13:43.631Z,102083.94
2023-05-04T08:16:11.044Z,102084.52
2023-05-04T08:18:39.244Z,102076.45
2023-05-04T08:21:07.329Z,102072.73
2023-05-04T08:23:36.868Z,102068.65
2023-05-04T08:26:04.895Z,102059.66
2023-05-04T08:28:39.313Z,102061.27
2023-05-04T08:31:07.910Z,102056.32
2023-05-04T08:33:35.367Z,102059.04
2023-05-04T08:36:04.661Z,102066.13
2023-05-04T08:38:38.619Z,102068.45
2023-05-04T08:41:09.922Z,102070.91
2023-05-04T08:43:39.430Z,102070.15
2023-05-04T08:46:09.801Z,102068.33
2023-05-04T08:48:38.077Z,102069.89
2023-05-04T08:51:08.597Z,102066.28
2023-05-04T08:53:41.638Z,102058.62
2023-05-04T08:56:13.700Z,102054.98
2023-05-04T08:58:49.827Z,102059.48
2023-05-04T09:01:17.996Z,102069.73
2023-05-04T09:03:46.844Z,102073.39
2023-05-04T09:06:14.562Z,102076.63
2023-05-04T09:08:42.490Z,102073.59
2023-05-04T09:11:15.655Z,102074.79
2023-05-04T09:13:46.147Z,102077.37
2023-05-04T09:16:16.704Z,102078.80
2023-05-04T09:18:47.865Z,102078.55
2023-05-04T09:21:16.860Z,102075.67
2023-05-04T09:23:51.801Z,102073.27
2023-05-04T09:26:34.510Z,102068.67
2023-05-04T09:29:17.239Z,102071.59
2023-05-04T09:31:49.222Z,102079.25
2023-05-04T09:34:22.582Z,102079.39
2023-05-04T09:37:02.754Z,102075.55
2023-05-04T09:39:30.685Z,102073.10
2023-05-04T09:41:57.787Z,102075.09
2023-05-04T09:44:27.475Z,102067.48
2023-05-04T09:54:49.098Z,102056.54
2023-05-04T09:57:19.220Z,102045.13
2023-05-04T09:59:46.702Z,102029.54
2023-05-04T10:02:22.776Z,102030.88
2023-05-04T10:04:52.756Z,102028.80
2023-05-04T10:07:21.558Z,102031.61
2023-05-04T10:09:49.234Z,102025.16
2023-05-04T10:12:16.629Z,102027.54
2023-05-04T10:14:46.991Z,102029.33
2023-05-04T10:17:36.150Z,102025.70
2023-05-04T10:20:18.602Z,102030.42
2023-05-04T10:23:08.136Z,102030.46
2023-05-04T10:25:57.376Z,102032.83
2023-05-04T10:32:24.412Z,102037.21
2023-05-04T10:38:53.928Z,102031.72
2023-05-04T10:41:43.308Z,102027.35
2023-05-04T10:44:11.156Z,102024.20
2023-05-04T10:46:38.495Z,102012.92
2023-05-04T10:49:16.392Z,102018.64
2023-05-04T10:51:49.473Z,102022.52
2023-05-04T10:54:19.842Z,102026.00
2023-05-04T10:56:46.817Z,102028.52
2023-05-04T10:59:15.234Z,102022.64
2023-05-04T11:01:56.463Z,102015.41
2023-05-04T11:04:24.729Z,102019.09
2023-05-04T11:07:09.235Z,102012.08
2023-05-04T11:09:38.013Z,102002.83
2023-05-04T11:12:11.475Z,101999.21
2023-05-04T11:14:45.398Z,101995.97
2023-05-04T11:19:54.588Z,102000.40
2023-05-04T11:22:22.000Z,102002.02
2023-05-04T11:24:49.339Z,101998.02
2023-05-04T11:27:27.767Z,101993.17
2023-05-04T11:30:05.183Z,101988.27
2023-05-04T11:32:43.772Z,101994.15
2023-05-04T11:35:16.009Z,101992.85
2023-05-04T11:37:43.671Z,101989.15
2023-05-04T11:40:19.306Z,101986.58
2023-05-04T11:42:50.687Z,101989.31
2023-05-04T11:45:24.621Z,101989.99
2023-05-04T11:47:56.780Z,101990.08
2023-05-04T11:50:25.109Z,101991.06
2023-05-04T11:52:52.179Z,101986.77
2023-05-04T11:55:29.673Z,101981.66
2023-05-04T11:58:00.779Z,101974.23
2023-05-04T12:00:40.674Z,101972.65
2023-05-04T12:03:14.670Z,101969.44
2023-05-04T12:05:52.257Z,101960.65
2023-05-04T12:08:26.472Z,101953.95
2023-05-04T12:11:14.022Z,101950.45
2023-05-04T12:13:45.112Z,101948.56
2023-05-04T12:16:16.810Z,101941.67
2023-05-04T12:18:46.026Z,101943.55
2023-05-04T12:21:14.295Z,101941.09
2023-05-04T12:23:44.327Z,101941.71
2023-05-04T12:26:11.999Z,101940.35
2023-05-04T12:28:39.850Z,101937.70
2023-05-04T12:31:10.555Z,101933.98
2023-05-04T12:33:37.647Z,101930.26
2023-05-04T12:36:06.322Z,101928.31
2023-05-04T12:38:39.847Z,101921.80
2023-05-04T12:41:13.745Z,101917.64
2023-05-04T12:43:41.212Z,101914.61
2023-05-04T12:46:08.622Z,101912.36
2023-05-04T12:48:41.652Z,101907.85
2023-05-04T12:51:09.138Z,101902.02
2023-05-04T12:53:36.905Z,101898.46
2023-05-04T12:56:04.428Z,101895.40
2023-05-04T12:58:31.552Z,101894.16
2023-05-04T13:01:03.715Z,101893.38
2023-05-04T13:03:30.875Z,101891.65
2023-05-04T13:05:58.245Z,101888.46
2023-05-04T13:08:28.551Z,101886.61
2023-05-04T13:11:20.907Z,101879.04
2023-05-04T13:13:48.800Z,101875.54
2023-05-04T13:16:17.205Z,101871.35
2023-05-04T13:18:47.158Z,101868.29
2023-05-04T13:21:14.188Z,101863.89
2023-05-04T13:23:41.174Z,101864.59
2023-05-04T13:26:08.234Z,101869.16
2023-05-04T13:28:36.637Z,101863.38
2023-05-04T13:31:10.925Z,101855.78
2023-05-04T13:34:05.778Z,101848.06
2023-05-04T13:36:35.955Z,101840.92
2023-05-04T13:39:11.453Z,101835.48
2023-05-04T13:42:03.129Z,101840.02
2023-05-04T13:44:31.083Z,101838.04
2023-05-04T13:47:01.884Z,101837.95
2023-05-04T13:49:31.795Z,101833.95
2023-05-04T13:52:07.843Z,101829.64
2023-05-04T13:54:38.237Z,101824.20
2023-05-04T14:00:52.795Z,101816.39
2023-05-04T14:03:39.112Z,101809.12
2023-05-04T14:06:06.576Z,101804.27
2023-05-04T14:08:33.916Z,101801.79
2023-05-04T14:11:06.896Z,101801.48
2023-05-04T14:13:34.021Z,101792.81
2023-05-04T14:16:02.609Z,101789.61
2023-05-04T14:18:32.316Z,101790.55
2023-05-04T14:20:59.325Z,101791.16
2023-05-04T14:23:26.397Z,101789.13
2023-05-04T14:25:53.622Z,101790.73
2023-05-04T14:28:21.496Z,101783.38
2023-05-04T14:30:48.848Z,101771.80
2023-05-04T14:33:18.506Z,101764.90
2023-05-04T14:36:37.038Z,101767.97
2023-05-04T14:39:28.348Z,101770.83
2023-05-04T14:42:01.815Z,101769.27
2023-05-04T14:44:40.728Z,101763.48
2023-05-04T14:47:08.023Z,101757.35
2023-05-04T14:49:37.550Z,101756.66
2023-05-04T14:52:05.232Z,101748.49
2023-05-04T14:54:32.764Z,101741.90
2023-05-04T14:57:00.171Z,101735.97
2023-05-04T14:59:27.322Z,101734.84
2023-05-04T15:01:55.405Z,101735.03
2023-05-04T15:04:22.914Z,101736.25
2023-05-04T15:06:49.987Z,101735.95
2023-05-04T15:09:17.038Z,101734.51
2023-05-04T15:11:44.091Z,101730.73
2023-05-04T15:14:11.317Z,101726.73
2023-05-04T15:16:38.621Z,101724.46
2023-05-04T15:19:05.986Z,101727.40
2023-05-04T15:21:33.018Z,101724.17
2023-05-04T15:24:00.215Z,101719.77
2023-05-04T15:26:29.073Z,101715.65
2023-05-04T15:28:57.440Z,101713.48
2023-05-04T15:31:24.682Z,101712.93
2023-05-04T15:33:51.741Z,101716.58
2023-05-04T15:36:18.846Z,101715.83
2023-05-04T15:38:45.932Z,101709.66
2023-05-04T15:41:14.330Z,101704.15
2023-05-04T15:43:45.187Z,101702.64
2023-05-04T15:46:12.361Z,101703.70
2023-05-04T15:48:39.523Z,101707.20
2023-05-04T15:51:12.649Z,101706.98
2023-05-04T15:53:39.874Z,101703.48
2023-05-04T15:56:07.657Z,101702.60
2023-05-04T15:58:34.727Z,101698.61
2023-05-04T16:01:04.167Z,101698.13
2023-05-04T16:03:31.908Z,101694.84
2023-05-04T16:05:58.963Z,101696.67
2023-05-04T16:08:26.256Z,101704.04
2023-05-04T16:10:54.012Z,101703.88
2023-05-04T16:13:21.066Z,101708.39
2023-05-04T16:15:51.650Z,101709.20
2023-05-04T16:18:18.664Z,101707.89
2023-05-04T16:20:46.388Z,101706.45
2023-05-04T16:23:14.517Z,101703.66
2023-05-04T16:25:41.759Z,101701.30
2023-05-04T16:28:08.962Z,101706.91
2023-05-04T16:30:36.205Z,101706.67
2023-05-04T16:33:04.440Z,101706.34
2023-05-04T16:35:34.334Z,101704.35
2023-05-04T16:38:01.454Z,101703.40
2023-05-04T16:40:28.492Z,101708.33
2023-05-04T16:42:55.568Z,101708.84
2023-05-04T16:45:24.850Z,101711.11
2023-05-04T16:47:52.188Z,101710.12
2023-05-04T16:50:20.075Z,101711.33
2023-05-04T16:52:47.083Z,101709.14
2023-05-04T16:55:14.071Z,101707.29
2023-05-04T16:57:41.172Z,101704.71
2023-05-04T17:00:09.205Z,101704.41
2023-05-04T17:02:36.824Z,101706.87
2023-05-04T17:05:06.790Z,101710.59
2023-05-04T17:07:34.269Z,101714.75
2023-05-04T17:10:01.759Z,101714.21
2023-05-04T17:12:29.207Z,101718.30
2023-05-04T17:14:56.188Z,101720.76
2023-05-04T17:17:23.357Z,101720.90
2023-05-04T17:19:50.322Z,101721.98
2023-05-04T17:22:17.588Z,101721.39
2023-05-04T17:24:45.736Z,101724.68
2023-05-04T17:27:13.074Z,101727.12
2023-05-04T17:29:41.243Z,101725.69
2023-05-04T17:32:08.342Z,101731.15
2023-05-04T17:34:35.936Z,101737.70
2023-05-04T17:37:02.915Z,101746.27
2023-05-04T17:39:33.251Z,101747.50
2023-05-04T17:42:00.256Z,101746.66
2023-05-04T17:44:28.909Z,101746.60
2023-05-04T17:46:58.914Z,101740.77
2023-05-04T17:49:28.631Z,101741.40
2023-05-04T17:51:56.531Z,101742.05
2023-05-04T17:54:23.554Z,101743.48
2023-05-04T17:56:50.697Z,101745.19
2023-05-04T17:59:17.964Z,101752.36
2023-05-04T18:01:45.045Z,101756.66
2023-05-04T18:04:12.041Z,101757.66
2023-05-04T18:06:39.008Z,101761.52
2023-05-04T18:09:06.216Z,101762.09
2023-05-04T18:11:33.256Z,101769.84
2023-05-04T18:14:00.232Z,101769.08
2023-05-04T18:16:27.232Z,101763.13
2023-05-04T18:18:54.169Z,101763.39
2023-05-04T18:21:21.308Z,101758.45
2023-05-04T18:23:48.310Z,101758.20
2023-05-04T18:26:19.973Z,101764.11
2023-05-04T18:28:47.044Z,101771.98
2023-05-04T18:31:14.355Z,101776.77
2023-05-04T18:33:42.092Z,101776.48
2023-05-04T18:36:09.328Z,101774.31
2023-05-04T18:38:37.317Z,101776.48
2023-05-04T18:41:04.887Z,101778.31
2023-05-04T18:43:32.126Z,101778.30
2023-05-04T18:45:59.131Z,101774.77
2023-05-04T18:48:26.126Z,101773.33
2023-05-04T18:51:02.898Z,101774.52
2023-05-04T18:53:29.981Z,101772.61
2023-05-04T18:56:04.173Z,101776.48
2023-05-04T18:58:31.288Z,101774.84
2023-05-04T19:00:58.369Z,101772.54
2023-05-04T19:03:25.445Z,101768.03
2023-05-04T19:05:52.800Z,101764.77
2023-05-04T19:08:19.800Z,101762.25
2023-05-04T19:10:47.224Z,101756.25
2023-05-04T19:13:15.976Z,101756.39
2023-05-04T19:15:43.617Z,101752.45
2023-05-04T19:18:10.915Z,101747.95
2023-05-04T19:20:38.376Z,101734.90
2023-05-04T19:23:05.326Z,101730.35
2023-05-04T19:25:35.055Z,101729.52
2023-05-04T19:28:08.464Z,101722.61
2023-05-04T19:30:39.059Z,101722.61
2023-05-04T19:33:06.648Z,101721.73
2023-05-04T19:35:33.685Z,101719.44
2023-05-04T19:38:01.802Z,101718.27
2023-05-04T19:40:28.917Z,101708.86
2023-05-04T19:42:55.855Z,101702.27
2023-05-04T19:45:22.900Z,101703.74
2023-05-04T19:47:50.723Z,101704.96
2023-05-04T19:50:18.059Z,101704.07
2023-05-04T19:52:45.083Z,101707.90
2023-05-04T19:55:12.121Z,101705.89
2023-05-04T19:57:38.959Z,101707.63
2023-05-04T20:00:06.672Z,101703.66
2023-05-04T20:02:38.745Z,101701.98
2023-05-04T20:05:06.186Z,101699.91
2023-05-04T20:07:33.195Z,101699.69
2023-05-04T20:10:00.292Z,101700.70
2023-05-04T20:12:27.482Z,101702.09
2023-05-04T20:14:54.544Z,101703.10
2023-05-04T20:17:21.635Z,101699.60
2023-05-04T20:19:48.748Z,101698.73
2023-05-04T20:22:16.001Z,101693.88
2023-05-04T20:24:42.991Z,101694.94
2023-05-04T20:27:09.970Z,101697.86
2023-05-04T20:29:36.956Z,101699.54
2023-05-04T20:32:05.669Z,101699.80
2023-05-04T20:34:33.243Z,101702.61
2023-05-04T20:37:00.402Z,101697.35
2023-05-04T20:39:28.112Z,101701.58
2023-05-04T20:41:55.082Z,101703.79
2023-05-04T20:44:22.366Z,101701.29
2023-05-04T20:46:49.445Z,101697.36
2023-05-04T20:49:16.535Z,101690.57
2023-05-04T20:51:43.509Z,101688.39
2023-05-04T20:54:10.448Z,101686.20
2023-05-04T20:56:37.539Z,101686.46
2023-05-04T20:59:04.648Z,101691.20
2023-05-04T21:01:31.769Z,101689.98
2023-05-04T21:03:58.858Z,101691.02
2023-05-04T21:06:25.864Z,101691.65
2023-05-04T21:08:52.856Z,101691.48
2023-05-04T21:11:19.815Z,101691.31
2023-05-04T21:13:46.737Z,101697.50
2023-05-04T21:16:13.945Z,101701.54
2023-05-04T21:18:41.099Z,101699.36
2023-05-04T21:21:07.975Z,101698.52
2023-05-04T21:23:34.903Z,101695.72
2023-05-04T21:26:04.983Z,101691.27
2023-05-04T21:28:32.024Z,101694.40
2023-05-04T21:30:59.080Z,101688.43
2023-05-04T21:33:26.128Z,101682.45
2023-05-04T21:35:53.156Z,101679.85
2023-05-04T21:38:22.055Z,101675.89
2023-05-04T21:40:49.326Z,101676.87
2023-05-04T21:43:16.435Z,101676.27
2023-05-04T21:45:43.617Z,101670.84
2023-05-04T21:48:10.655Z,101671.16
2023-05-04T21:50:37.601Z,101668.77
2023-05-04T21:53:04.575Z,101669.27
2023-05-04T21:55:31.611Z,101670.89
2023-05-04T21:57:58.522Z,101668.61
2023-05-04T22:00:25.715Z,101662.00
2023-05-04T22:02:55.897Z,101662.07
2023-05-04T22:05:23.214Z,101658.01
2023-05-04T22:07:50.459Z,101653.11
2023-05-04T22:10:17.890Z,101655.02
2023-05-04T22:12:44.949Z,101650.84
2023-05-04T22:15:12.096Z,101648.76
2023-05-04T22:17:39.336Z,101645.90
2023-05-04T22:20:07.279Z,101639.64
2023-05-04T22:22:35.203Z,101642.59
2023-05-04T22:25:02.265Z,101637.63
2023-05-04T22:27:29.252Z,101639.40
2023-05-04T22:29:56.255Z,101641.85
2023-05-04T22:32:23.290Z,101639.63
2023-05-04T22:34:50.366Z,101639.15
2023-05-04T22:37:17.301Z,101638.90
2023-05-04T22:39:44.293Z,101633.27
2023-05-04T22:42:11.181Z,101627.03
2023-05-04T22:44:38.187Z,101621.64
2023-05-04T22:47:05.296Z,101623.73
2023-05-04T22:49:32.273Z,101623.45
2023-05-04T22:51:59.656Z,101624.61
2023-05-04T22:54:26.836Z,101623.84
2023-05-04T22:56:53.757Z,101619.45
2023-05-04T22:59:20.883Z,101621.07
2023-05-04T23:01:47.987Z,101625.14
2023-05-04T23:04:15.409Z,101623.26
2023-05-04T23:06:43.819Z,101619.48
2023-05-04T23:09:11.748Z,101619.77
2023-05-04T23:11:38.646Z,101619.30
2023-05-04T23:14:05.738Z,101619.42
2023-05-04T23:16:33.052Z,101617.03
2023-05-04T23:19:00.054Z,101619.58
2023-05-04T23:21:27.440Z,101616.19
2023-05-04T23:23:54.380Z,101612.29
2023-05-04T23:26:21.450Z,101617.89
2023-05-04T23:28:48.384Z,101615.14
2023-05-04T23:31:15.802Z,101612.80
2023-05-04T23:33:43.500Z,101608.47
2023-05-04T23:36:10.588Z,101609.66
2023-05-04T23:38:37.630Z,101605.98
2023-05-04T23:41:04.689Z,101603.94
2023-05-04T23:43:32.054Z,101605.55
2023-05-04T23:46:02.944Z,101604.14
2023-05-04T23:48:30.704Z,101606.50
2023-05-04T23:51:04.715Z,101605.35
2023-05-04T23:53:32.110Z,101601.77
2023-05-04T23:56:01.960Z,101592.32
2023-05-04T23:58:31.100Z,101591.27
